Time;durP1;ratioP1;P1;durP2;ratioP2;P2;SDS_P1;SDS_P2;PMS_P1;PMS_P2;Temp;Humidity;BMP_temperature;BMP_pressure;BME280_temperature;BME280_humidity;BME280_pressure;Samples;Min_cycle;Max_cycle;Signal;HPM_P1;HPM_P2
2023/11/01 00:01:48;;;;;;;11.38;2.70;;;11.90;99.90;;;;;;5060651;28;20020;-59
2023/11/01 00:04:14;;;;;;;6.63;2.22;;;11.80;99.90;;;;;;5054891;28;20020;-57
2023/11/01 00:06:39;;;;;;;12.32;2.53;;;11.80;99.90;;;;;;5056310;28;20036;-61
2023/11/01 00:09:05;;;;;;;9.90;2.20;;;11.90;99.90;;;;;;5057873;28;20029;-61
2023/11/01 00:11:30;;;;;;;8.45;2.33;;;11.90;99.90;;;;;;5064204;28;20031;-60
2023/11/01 00:13:56;;;;;;;12.57;2.03;;;11.90;99.90;;;;;;5068493;28;20054;-60
2023/11/01 00:16:21;;;;;;;9.40;2.15;;;11.90;99.90;;;;;;5070096;28;20118;-60
2023/11/01 00:18:47;;;;;;;6.25;2.33;;;11.90;99.90;;;;;;5059633;28;20021;-59
2023/11/01 00:21:13;;;;;;;12.38;2.55;;;12.00;99.90;;;;;;5061322;28;20095;-61
2023/11/01 00:23:38;;;;;;;18.30;2.60;;;12.00;99.90;;;;;;5057651;28;20107;-57
2023/11/01 00:26:06;;;;;;;10.52;1.90;;;12.00;99.90;;;;;;5058632;28;20483;-60
2023/11/01 00:28:32;;;;;;;9.77;1.98;;;12.10;99.90;;;;;;5055528;28;20105;-54
2023/11/01 00:30:58;;;;;;;12.57;2.63;;;12.10;99.90;;;;;;5059357;28;20020;-59
2023/11/01 00:33:23;;;;;;;4.38;1.80;;;12.00;99.90;;;;;;5068447;28;20509;-60
2023/11/01 00:35:49;;;;;;;7.25;2.13;;;12.00;99.90;;;;;;5057360;28;20040;-58
2023/11/01 00:38:20;;;;;;;11.20;2.40;;;12.00;99.90;;;;;;5062303;28;20091;-59
2023/11/01 00:40:46;;;;;;;10.55;2.40;;;12.10;99.90;;;;;;5058383;28;20033;-59
2023/11/01 00:43:11;;;;;;;9.18;3.58;;;12.00;99.90;;;;;;5058231;28;20021;-63
2023/11/01 00:45:37;;;;;;;9.77;3.47;;;12.00;99.90;;;;;;5060916;28;20105;-58
2023/11/01 00:48:03;;;;;;;20.52;4.18;;;12.00;99.90;;;;;;5062621;28;20027;-60
2023/11/01 00:50:30;;;;;;;7.80;3.70;;;12.00;99.90;;;;;;5061543;28;20025;-59
2023/11/01 00:52:55;;;;;;;13.02;3.72;;;11.90;99.90;;;;;;5061828;28;20028;-57
2023/11/01 00:55:21;;;;;;;8.60;4.25;;;11.90;99.90;;;;;;5063885;28;20039;-58
2023/11/01 00:57:48;;;;;;;8.27;3.88;;;11.90;99.90;;;;;;5052755;28;20028;-59
2023/11/01 01:00:14;;;;;;;13.20;3.58;;;11.90;99.90;;;;;;5063525;28;20017;-58
2023/11/01 01:02:40;;;;;;;15.73;3.95;;;11.90;99.90;;;;;;5056561;28;20033;-59
2023/11/01 01:05:06;;;;;;;9.25;4.05;;;11.80;99.90;;;;;;5061689;28;20031;-58
2023/11/01 01:07:32;;;;;;;10.23;3.78;;;11.80;99.90;;;;;;5059199;28;20040;-58
2023/11/01 01:09:57;;;;;;;10.98;4.18;;;11.70;99.90;;;;;;5059050;28;20059;-55
2023/11/01 01:12:23;;;;;;;8.48;3.65;;;11.70;99.90;;;;;;5071834;28;20025;-62
2023/11/01 01:14:49;;;;;;;7.70;3.58;;;11.70;99.90;;;;;;5052577;28;20032;-59
2023/11/01 01:17:14;;;;;;;9.90;3.92;;;11.70;99.90;;;;;;5065815;28;20564;-59
2023/11/01 01:19:40;;;;;;;13.65;3.70;;;11.60;99.90;;;;;;5063507;28;20048;-61
2023/11/01 01:22:05;;;;;;;13.05;3.85;;;11.60;99.90;;;;;;5079278;28;20065;-61
2023/11/01 01:24:31;;;;;;;7.32;3.97;;;11.60;99.90;;;;;;5070222;28;20061;-61
2023/11/01 01:26:56;;;;;;;9.05;3.58;;;11.60;99.90;;;;;;5067802;28;20047;-59
2023/11/01 01:29:22;;;;;;;12.00;3.92;;;11.70;99.90;;;;;;5065670;28;20033;-55
2023/11/01 01:31:47;;;;;;;10.50;3.20;;;11.60;99.90;;;;;;5069407;28;20081;-57
2023/11/01 01:34:13;;;;;;;11.13;3.38;;;11.70;99.90;;;;;;5070357;28;20031;-58
2023/11/01 01:36:38;;;;;;;11.27;3.60;;;11.70;99.90;;;;;;5070498;28;20033;-61
2023/11/01 01:39:04;;;;;;;11.18;3.72;;;11.70;99.90;;;;;;5063520;28;20087;-62
2023/11/01 01:41:29;;;;;;;10.52;3.25;;;11.60;99.90;;;;;;5068582;28;20479;-60
2023/11/01 01:43:55;;;;;;;7.25;2.90;;;11.60;99.90;;;;;;5067441;28;20020;-59
2023/11/01 01:46:22;;;;;;;7.93;3.13;;;11.60;99.90;;;;;;5073219;28;20029;-60
2023/11/01 01:48:48;;;;;;;9.95;2.95;;;11.60;99.90;;;;;;5059535;28;20020;-59
2023/11/01 01:51:14;;;;;;;13.05;3.05;;;11.60;99.90;;;;;;5071277;28;20104;-56
2023/11/01 01:53:43;;;;;;;9.90;3.17;;;11.60;99.90;;;;;;5076774;28;20452;-56
2023/11/01 01:56:10;;;;;;;9.35;1.90;;;11.60;99.90;;;;;;5068470;28;20473;-58
2023/11/01 01:58:37;;;;;;;4.90;2.50;;;11.70;99.90;;;;;;5059515;28;20107;-60
2023/11/01 02:01:04;;;;;;;15.68;3.05;;;11.70;99.90;;;;;;5064272;28;20032;-59
2023/11/01 02:03:30;;;;;;;7.22;2.40;;;11.70;99.90;;;;;;5065866;28;20407;-60
2023/11/01 02:05:56;;;;;;;10.30;2.50;;;11.70;99.90;;;;;;5063059;28;20029;-61
2023/11/01 02:08:22;;;;;;;8.82;3.20;;;11.70;99.90;;;;;;5067650;28;20028;-61
2023/11/01 02:10:48;;;;;;;9.70;2.58;;;11.70;99.90;;;;;;5065687;28;20343;-60
2023/11/01 02:13:15;;;;;;;8.00;2.60;;;11.70;99.90;;;;;;5072640;28;20530;-58
2023/11/01 02:15:43;;;;;;;9.85;2.13;;;11.70;99.90;;;;;;5063416;28;20037;-61
2023/11/01 02:18:09;;;;;;;8.23;2.72;;;11.70;99.90;;;;;;5059137;28;20020;-60
2023/11/01 02:20:36;;;;;;;6.75;2.00;;;11.70;99.90;;;;;;5066473;28;20086;-59
2023/11/01 02:23:12;;;;;;;6.85;2.40;;;11.70;99.90;;;;;;5070116;28;20486;-58
2023/11/01 02:25:39;;;;;;;13.30;2.50;;;11.70;99.90;;;;;;5060319;28;20041;-59
2023/11/01 02:28:07;;;;;;;5.80;2.00;;;11.70;99.90;;;;;;5074139;28;20032;-59
2023/11/01 02:30:33;;;;;;;14.68;2.00;;;11.80;99.90;;;;;;5063251;28;20499;-60
2023/11/01 02:32:58;;;;;;;5.28;1.95;;;11.80;99.90;;;;;;5065412;28;20033;-57
2023/11/01 02:35:24;;;;;;;11.05;2.13;;;11.70;99.90;;;;;;5065023;28;20028;-55
2023/11/01 02:37:50;;;;;;;11.50;2.08;;;11.70;99.90;;;;;;5077348;28;20029;-56
2023/11/01 02:40:16;;;;;;;10.00;2.13;;;11.70;99.90;;;;;;5061529;28;20017;-57
2023/11/01 02:42:46;;;;;;;12.98;2.60;;;11.70;99.90;;;;;;5070661;28;20060;-57
2023/11/01 02:45:12;;;;;;;4.55;2.10;;;11.70;99.90;;;;;;5057804;28;20021;-59
2023/11/01 02:47:39;;;;;;;7.95;1.80;;;11.70;99.90;;;;;;5064377;28;20036;-60
2023/11/01 02:50:07;;;;;;;5.32;2.28;;;11.70;99.90;;;;;;5066681;28;20036;-58
2023/11/01 02:52:33;;;;;;;6.47;2.20;;;11.80;99.90;;;;;;5065770;28;20028;-58
2023/11/01 02:55:05;;;;;;;8.02;2.10;;;11.80;99.90;;;;;;5066150;28;20034;-59
2023/11/01 02:57:31;;;;;;;9.38;2.60;;;11.80;99.90;;;;;;5074364;28;20085;-59
2023/11/01 02:59:58;;;;;;;9.98;2.20;;;11.80;99.90;;;;;;5064639;28;20032;-57
2023/11/01 03:02:24;;;;;;;3.47;1.88;;;11.80;99.90;;;;;;5063929;28;20035;-61
2023/11/01 03:04:49;;;;;;;14.43;2.42;;;11.80;99.90;;;;;;5066248;28;20422;-61
2023/11/01 03:07:15;;;;;;;8.68;2.15;;;11.80;99.90;;;;;;5066690;28;20403;-60
2023/11/01 03:09:41;;;;;;;18.30;2.15;;;11.80;99.90;;;;;;5068322;28;20040;-57
2023/11/01 03:12:07;;;;;;;9.20;2.30;;;11.80;99.90;;;;;;5067621;28;20032;-58
2023/11/01 03:14:33;;;;;;;9.10;2.60;;;11.80;99.90;;;;;;5068462;28;20037;-60
2023/11/01 03:16:58;;;;;;;5.85;2.03;;;11.90;99.90;;;;;;5057117;28;20033;-60
2023/11/01 03:19:24;;;;;;;8.70;2.17;;;11.90;99.90;;;;;;5064555;28;20106;-58
2023/11/01 03:21:50;;;;;;;7.03;2.03;;;11.90;99.90;;;;;;5064731;28;20024;-57
2023/11/01 03:24:16;;;;;;;4.43;1.50;;;11.90;99.90;;;;;;5066801;28;20427;-59
2023/11/01 03:26:42;;;;;;;9.82;2.08;;;11.90;99.90;;;;;;5061650;28;20075;-54
2023/11/01 03:29:07;;;;;;;5.47;1.52;;;12.00;99.90;;;;;;5066368;28;20629;-57
2023/11/01 03:31:33;;;;;;;9.40;1.85;;;12.00;99.90;;;;;;5061180;28;20039;-58
2023/11/01 03:33:58;;;;;;;5.88;1.60;;;12.00;99.90;;;;;;5070952;28;20025;-60
2023/11/01 03:36:24;;;;;;;11.52;2.83;;;12.00;99.90;;;;;;5056024;28;20455;-59
2023/11/01 03:38:49;;;;;;;8.68;2.08;;;12.00;99.90;;;;;;5062433;28;20025;-61
2023/11/01 03:41:15;;;;;;;5.35;1.75;;;11.90;99.90;;;;;;5069881;28;20034;-61
2023/11/01 03:43:42;;;;;;;12.52;2.00;;;11.90;99.90;;;;;;5065315;28;20036;-61
2023/11/01 03:46:07;;;;;;;8.43;1.88;;;11.90;99.90;;;;;;5063064;28;20089;-59
2023/11/01 03:48:33;;;;;;;7.63;1.85;;;11.90;99.90;;;;;;5065110;28;20458;-61
2023/11/01 03:50:58;;;;;;;8.75;2.22;;;11.90;99.90;;;;;;5058942;28;20037;-60
2023/11/01 03:53:24;;;;;;;10.68;2.35;;;11.90;99.90;;;;;;5066327;28;20025;-59
2023/11/01 03:55:50;;;;;;;3.58;1.67;;;11.90;99.90;;;;;;5066163;28;20032;-61
2023/11/01 03:58:15;;;;;;;6.20;1.92;;;11.90;99.90;;;;;;5064808;28;20021;-58
2023/11/01 04:00:41;;;;;;;7.28;2.35;;;11.90;99.90;;;;;;5068764;28;20044;-61
2023/11/01 04:03:07;;;;;;;10.75;2.35;;;11.90;99.90;;;;;;5067362;28;20521;-58
2023/11/01 04:05:33;;;;;;;10.30;1.75;;;11.90;99.90;;;;;;5058076;28;20028;-59
2023/11/01 04:07:58;;;;;;;6.45;1.92;;;11.90;99.90;;;;;;5065594;28;20398;-59
2023/11/01 04:10:24;;;;;;;5.00;1.70;;;11.80;99.90;;;;;;5065711;28;20101;-58
2023/11/01 04:12:50;;;;;;;9.95;2.17;;;11.80;99.90;;;;;;5071792;28;20028;-59
2023/11/01 04:15:16;;;;;;;5.82;1.80;;;11.80;99.90;;;;;;5068954;28;20044;-58
2023/11/01 04:17:42;;;;;;;13.20;2.60;;;11.80;99.90;;;;;;5063655;28;20494;-57
2023/11/01 04:20:08;;;;;;;5.57;1.63;;;11.80;99.90;;;;;;5058353;28;20031;-58
2023/11/01 04:22:38;;;;;;;5.32;2.10;;;11.90;99.90;;;;;;5063503;28;20025;-58
2023/11/01 04:25:05;;;;;;;5.82;1.90;;;11.90;99.90;;;;;;5058673;28;20070;-59
2023/11/01 04:27:34;;;;;;;7.00;2.20;;;11.90;99.90;;;;;;5064179;28;20372;-58
2023/11/01 04:29:59;;;;;;;9.10;3.33;;;11.80;99.90;;;;;;5074630;28;20024;-59
2023/11/01 04:32:28;;;;;;;8.57;2.08;;;11.80;99.90;;;;;;5060515;28;20108;-59
2023/11/01 04:34:55;;;;;;;8.18;2.03;;;11.80;99.90;;;;;;5063766;28;20395;-60
2023/11/01 04:37:22;;;;;;;8.80;2.10;;;11.80;99.90;;;;;;5064187;28;20466;-58
2023/11/01 04:39:48;;;;;;;15.00;2.35;;;11.90;99.90;;;;;;5054677;28;20119;-59
2023/11/01 04:42:15;;;;;;;14.98;2.60;;;11.90;99.90;;;;;;5065933;28;20119;-59
2023/11/01 04:44:42;;;;;;;6.70;2.38;;;11.90;99.90;;;;;;5071111;28;20052;-59
2023/11/01 04:47:08;;;;;;;9.40;2.22;;;12.00;99.90;;;;;;5060555;28;20116;-60
2023/11/01 04:49:34;;;;;;;6.30;2.50;;;11.90;99.90;;;;;;5060616;28;21567;-57
2023/11/01 04:51:59;;;;;;;5.57;2.40;;;11.90;99.90;;;;;;5062612;28;20087;-58
2023/11/01 04:54:25;;;;;;;6.30;2.10;;;11.90;99.90;;;;;;5071012;28;20025;-56
2023/11/01 04:56:50;;;;;;;12.98;2.95;;;11.90;99.90;;;;;;5071585;28;20123;-57
2023/11/01 04:59:16;;;;;;;5.60;2.13;;;11.90;99.90;;;;;;5073390;28;20023;-60
2023/11/01 05:01:41;;;;;;;8.13;2.38;;;11.90;99.90;;;;;;5064548;28;20055;-60
2023/11/01 05:04:07;;;;;;;10.27;2.30;;;11.80;99.90;;;;;;5067778;28;20068;-60
2023/11/01 05:06:33;;;;;;;6.93;2.55;;;11.90;99.90;;;;;;5072451;28;20020;-59
2023/11/01 05:08:58;;;;;;;7.60;2.00;;;11.80;99.90;;;;;;5076306;28;20116;-60
2023/11/01 05:11:24;;;;;;;8.05;2.42;;;11.90;99.90;;;;;;5062348;28;20035;-60
2023/11/01 05:13:50;;;;;;;10.93;3.28;;;11.90;99.90;;;;;;5069434;28;20050;-60
2023/11/01 05:16:16;;;;;;;9.77;2.50;;;11.90;99.90;;;;;;5070661;28;20463;-59
2023/11/01 05:18:41;;;;;;;6.50;2.40;;;11.90;99.90;;;;;;5075710;28;20040;-57
2023/11/01 05:21:07;;;;;;;13.38;3.22;;;11.90;99.90;;;;;;5064137;28;20380;-60
2023/11/01 05:23:32;;;;;;;5.55;2.65;;;11.90;99.90;;;;;;5067090;28;20033;-60
2023/11/01 05:25:59;;;;;;;12.70;3.60;;;11.90;99.90;;;;;;5060799;28;20053;-60
2023/11/01 05:28:26;;;;;;;15.27;3.78;;;11.90;99.90;;;;;;5063845;28;20473;-55
2023/11/01 05:30:51;;;;;;;12.68;3.22;;;11.80;99.90;;;;;;5065393;28;20036;-58
2023/11/01 05:33:18;;;;;;;18.20;3.78;;;11.80;99.90;;;;;;5068574;28;20507;-60
2023/11/01 05:35:45;;;;;;;10.52;2.92;;;11.80;99.90;;;;;;5066466;28;20031;-54
2023/11/01 05:38:11;;;;;;;8.27;3.40;;;11.80;99.90;;;;;;5064071;28;20445;-61
2023/11/01 05:40:37;;;;;;;10.80;4.78;;;11.80;99.90;;;;;;5064337;28;20059;-60
2023/11/01 05:43:02;;;;;;;8.45;3.40;;;11.80;99.90;;;;;;5069953;28;20092;-60
2023/11/01 05:45:28;;;;;;;7.93;2.67;;;11.80;99.90;;;;;;5068071;28;20033;-58
2023/11/01 05:47:54;;;;;;;16.88;2.97;;;11.80;99.90;;;;;;5067437;28;20025;-59
2023/11/01 05:50:23;;;;;;;10.50;2.78;;;11.90;99.90;;;;;;5065862;28;20510;-58
2023/11/01 05:52:54;;;;;;;10.38;3.10;;;11.90;99.90;;;;;;5067053;28;20130;-58
2023/11/01 05:55:19;;;;;;;5.25;2.63;;;11.90;99.90;;;;;;5071200;28;20130;-58
2023/11/01 05:57:50;;;;;;;9.70;2.97;;;11.80;99.90;;;;;;5064873;28;20468;-60
2023/11/01 06:00:17;;;;;;;9.48;2.88;;;11.90;99.90;;;;;;5061741;28;20079;-58
2023/11/01 06:02:43;;;;;;;13.27;2.75;;;11.90;99.90;;;;;;5073686;28;20033;-59
2023/11/01 06:05:09;;;;;;;8.45;2.97;;;11.90;99.90;;;;;;5066418;28;20016;-59
2023/11/01 06:07:34;;;;;;;13.63;2.58;;;11.90;99.90;;;;;;5061496;28;20036;-60
2023/11/01 06:10:00;;;;;;;8.73;2.85;;;11.90;99.90;;;;;;5067066;28;20025;-60
2023/11/01 06:12:25;;;;;;;9.13;3.10;;;11.90;99.90;;;;;;5063866;28;20124;-57
2023/11/01 06:14:51;;;;;;;9.77;2.42;;;11.80;99.90;;;;;;5064895;28;20467;-57
2023/11/01 06:17:16;;;;;;;8.40;2.92;;;11.80;99.90;;;;;;5071327;28;20445;-58
2023/11/01 06:19:42;;;;;;;7.63;2.53;;;11.80;99.90;;;;;;5059877;28;20058;-58
2023/11/01 06:22:07;;;;;;;8.18;2.58;;;11.80;99.90;;;;;;5066837;28;20051;-60
2023/11/01 06:24:33;;;;;;;7.28;2.65;;;11.80;99.90;;;;;;5063337;28;20063;-57
2023/11/01 06:26:59;;;;;;;9.05;2.60;;;11.80;99.90;;;;;;5065012;28;20514;-61
2023/11/01 06:29:25;;;;;;;6.65;2.40;;;11.80;99.90;;;;;;5066188;28;20124;-60
2023/11/01 06:31:51;;;;;;;7.07;2.30;;;11.80;99.90;;;;;;5065287;28;20520;-59
2023/11/01 06:34:17;;;;;;;6.15;2.90;;;11.70;99.90;;;;;;5069658;28;20024;-61
2023/11/01 06:36:45;;;;;;;8.65;2.90;;;11.80;99.90;;;;;;5074161;28;20064;-62
2023/11/01 06:39:10;;;;;;;9.27;3.00;;;11.70;99.90;;;;;;5065907;28;20677;-58
2023/11/01 06:41:36;;;;;;;8.05;2.90;;;11.80;99.90;;;;;;5060867;28;20056;-59
2023/11/01 06:44:05;;;;;;;7.30;2.90;;;11.80;99.90;;;;;;5062160;28;20031;-59
2023/11/01 06:46:31;;;;;;;11.38;3.25;;;11.80;99.90;;;;;;5065685;28;20035;-61
2023/11/01 06:48:57;;;;;;;9.30;3.00;;;11.80;99.90;;;;;;5070108;28;20032;-62
2023/11/01 06:51:22;;;;;;;9.50;4.30;;;11.80;99.90;;;;;;5064275;28;20184;-59
2023/11/01 06:53:48;;;;;;;5.03;2.90;;;11.80;99.90;;;;;;5067490;28;20097;-61
2023/11/01 06:56:13;;;;;;;11.45;3.08;;;11.90;99.90;;;;;;5054604;28;20395;-61
2023/11/01 06:58:39;;;;;;;5.07;2.67;;;11.90;99.90;;;;;;5054869;28;20525;-61
2023/11/01 07:01:06;;;;;;;5.85;2.42;;;11.90;99.90;;;;;;5068988;28;20028;-61
2023/11/01 07:03:31;;;;;;;7.60;2.63;;;11.90;99.90;;;;;;5066197;28;20017;-59
2023/11/01 07:05:57;;;;;;;6.00;2.38;;;11.90;99.90;;;;;;5069752;28;20040;-55
2023/11/01 07:08:23;;;;;;;5.25;2.75;;;11.90;99.90;;;;;;5066788;28;20112;-62
2023/11/01 07:10:48;;;;;;;6.05;2.85;;;12.00;99.90;;;;;;5064100;28;20028;-59
2023/11/01 07:13:14;;;;;;;7.07;3.05;;;12.00;99.90;;;;;;5066741;28;20518;-59
2023/11/01 07:15:39;;;;;;;10.45;3.60;;;12.10;99.90;;;;;;5062660;28;20028;-59
2023/11/01 07:18:07;;;;;;;8.40;3.00;;;12.10;99.90;;;;;;5058068;28;20467;-60
2023/11/01 07:20:33;;;;;;;4.70;2.78;;;12.10;99.90;;;;;;5060969;28;20037;-58
2023/11/01 07:22:58;;;;;;;12.63;2.95;;;12.20;99.90;;;;;;5059926;28;20025;-58
2023/11/01 07:25:24;;;;;;;5.35;2.92;;;12.20;99.90;;;;;;5064657;28;20020;-59
2023/11/01 07:27:49;;;;;;;8.10;2.80;;;12.20;99.90;;;;;;5067128;28;20075;-62
2023/11/01 07:30:15;;;;;;;5.38;2.28;;;12.30;99.90;;;;;;5069376;28;20032;-58
2023/11/01 07:32:41;;;;;;;13.18;3.20;;;12.30;99.90;;;;;;5067049;28;20780;-59
2023/11/01 07:35:06;;;;;;;7.95;2.30;;;12.30;99.90;;;;;;5055374;28;20151;-60
2023/11/01 07:37:32;;;;;;;10.27;3.17;;;12.40;99.90;;;;;;5065611;28;21557;-60
2023/11/01 07:39:59;;;;;;;5.88;3.08;;;12.40;99.90;;;;;;5053912;28;20599;-61
2023/11/01 07:42:24;;;;;;;20.05;3.30;;;12.40;99.90;;;;;;5065130;28;20024;-56
2023/11/01 07:44:50;;;;;;;14.63;3.42;;;12.50;99.90;;;;;;5056454;28;20025;-60
2023/11/01 07:47:15;;;;;;;9.05;3.42;;;12.50;99.90;;;;;;5060689;28;20090;-58
2023/11/01 07:49:41;;;;;;;11.25;3.38;;;12.60;99.90;;;;;;5058734;28;20044;-58
2023/11/01 07:52:06;;;;;;;14.85;3.78;;;12.60;99.90;;;;;;5067733;28;20040;-60
2023/11/01 07:54:32;;;;;;;8.90;3.30;;;12.60;99.90;;;;;;5057549;28;20040;-58
2023/11/01 07:56:58;;;;;;;7.30;3.25;;;12.70;99.90;;;;;;5063562;28;20024;-58
2023/11/01 07:59:24;;;;;;;17.38;4.03;;;12.80;99.90;;;;;;5063258;28;20021;-61
2023/11/01 08:01:49;;;;;;;8.88;3.92;;;12.80;99.90;;;;;;5065183;28;20608;-58
2023/11/01 08:04:17;;;;;;;11.90;3.60;;;12.80;99.90;;;;;;5060803;28;20033;-56
2023/11/01 08:06:42;;;;;;;11.23;3.67;;;12.80;99.90;;;;;;5061533;28;20469;-58
2023/11/01 08:09:08;;;;;;;7.30;2.80;;;12.90;99.90;;;;;;5057710;28;20044;-59
2023/11/01 08:11:33;;;;;;;15.98;2.65;;;12.80;99.90;;;;;;5066545;28;20074;-61
2023/11/01 08:13:59;;;;;;;16.90;3.17;;;12.90;99.90;;;;;;5058916;28;20024;-57
2023/11/01 08:16:25;;;;;;;15.55;2.58;;;12.80;99.90;;;;;;5063962;28;20032;-60
2023/11/01 08:18:51;;;;;;;19.88;2.63;;;12.90;99.90;;;;;;5059744;28;20024;-60
2023/11/01 08:21:17;;;;;;;19.10;2.50;;;12.90;99.90;;;;;;5062269;28;20509;-60
2023/11/01 08:23:42;;;;;;;11.52;2.38;;;13.00;99.90;;;;;;5063091;28;20028;-61
2023/11/01 08:26:08;;;;;;;20.67;2.90;;;13.00;99.90;;;;;;5059727;28;20449;-61
2023/11/01 08:28:33;;;;;;;8.38;2.20;;;13.00;99.90;;;;;;5063457;28;20506;-58
2023/11/01 08:30:59;;;;;;;23.73;2.90;;;13.00;99.90;;;;;;5058078;28;20124;-60
2023/11/01 08:33:24;;;;;;;8.90;1.90;;;13.00;99.90;;;;;;5061597;28;20097;-61
2023/11/01 08:35:51;;;;;;;15.55;2.55;;;13.10;99.90;;;;;;5063112;28;20037;-61
2023/11/01 08:38:16;;;;;;;15.95;2.58;;;13.20;99.90;;;;;;5063698;28;20096;-59
2023/11/01 08:40:42;;;;;;;14.88;2.63;;;13.20;99.90;;;;;;5057363;28;20546;-61
2023/11/01 08:43:07;;;;;;;11.10;2.20;;;13.30;99.90;;;;;;5065267;28;20419;-62
2023/11/01 08:45:33;;;;;;;12.15;2.25;;;13.30;99.90;;;;;;5059333;28;20495;-59
2023/11/01 08:47:58;;;;;;;21.90;2.25;;;13.40;99.90;;;;;;5060725;28;20020;-60
2023/11/01 08:50:24;;;;;;;8.02;1.75;;;13.40;99.90;;;;;;5057448;28;20036;-59
2023/11/01 08:52:50;;;;;;;10.00;2.03;;;13.40;99.90;;;;;;5062197;28;20025;-60
2023/11/01 08:55:16;;;;;;;14.00;2.22;;;13.40;99.90;;;;;;5066566;28;20021;-60
2023/11/01 08:57:44;;;;;;;12.20;2.40;;;13.50;99.90;;;;;;5061354;28;20029;-61
2023/11/01 09:00:12;;;;;;;12.50;2.15;;;13.40;99.90;;;;;;5054583;28;20070;-60
2023/11/01 09:02:38;;;;;;;12.32;2.00;;;13.50;99.90;;;;;;5062021;28;20124;-60
2023/11/01 09:05:04;;;;;;;13.60;2.40;;;13.50;99.90;;;;;;5059921;28;20490;-60
2023/11/01 09:07:29;;;;;;;10.93;1.75;;;13.60;99.90;;;;;;5062723;28;20161;-59
2023/11/01 09:09:55;;;;;;;11.88;2.00;;;13.60;99.90;;;;;;5054778;28;20032;-59
2023/11/01 09:12:21;;;;;;;14.25;1.83;;;13.60;99.90;;;;;;5065590;28;20037;-58
2023/11/01 09:14:47;;;;;;;12.57;1.98;;;13.60;99.90;;;;;;5057660;28;20057;-61
2023/11/01 09:17:13;;;;;;;10.90;2.35;;;13.50;99.90;;;;;;5059088;28;20516;-63
2023/11/01 09:19:40;;;;;;;7.13;1.92;;;13.50;99.90;;;;;;5056107;28;20040;-60
2023/11/01 09:22:06;;;;;;;12.40;1.90;;;13.50;99.90;;;;;;5062141;28;20021;-61
2023/11/01 09:24:31;;;;;;;14.45;2.15;;;13.50;99.90;;;;;;5055337;28;20029;-59
2023/11/01 09:26:57;;;;;;;8.95;1.73;;;13.40;99.90;;;;;;5061290;28;20025;-61
2023/11/01 09:29:22;;;;;;;16.08;2.22;;;13.40;99.90;;;;;;5062683;28;20029;-60
2023/11/01 09:31:48;;;;;;;9.00;1.83;;;13.40;99.90;;;;;;5058620;28;20056;-60
2023/11/01 09:34:14;;;;;;;5.72;1.55;;;13.40;99.90;;;;;;5060258;28;20488;-62
2023/11/01 09:36:40;;;;;;;14.25;1.98;;;13.40;99.90;;;;;;5059636;28;20641;-61
2023/11/01 09:39:06;;;;;;;19.25;2.22;;;13.40;99.90;;;;;;5060396;28;20060;-61
2023/11/01 09:41:44;;;;;;;11.98;1.65;;;13.30;99.90;;;;;;5059565;28;20037;-61
2023/11/01 09:44:14;;;;;;;12.25;1.80;;;13.40;99.90;;;;;;5059095;28;20017;-61
2023/11/01 09:46:41;;;;;;;8.90;1.58;;;13.40;99.90;;;;;;5056713;28;20035;-59
2023/11/01 09:49:06;;;;;;;9.27;1.45;;;13.40;99.90;;;;;;5065678;28;20020;-60
2023/11/01 09:51:33;;;;;;;6.75;1.63;;;13.40;99.90;;;;;;5056983;28;20087;-61
2023/11/01 09:54:01;;;;;;;12.43;1.63;;;13.40;99.90;;;;;;5058384;28;20032;-61
2023/11/01 09:56:31;;;;;;;10.25;1.55;;;13.50;99.90;;;;;;5064224;28;20029;-57
2023/11/01 09:58:58;;;;;;;9.60;1.75;;;13.50;99.90;;;;;;5067246;28;20020;-61
2023/11/01 10:01:26;;;;;;;11.07;1.60;;;13.50;99.90;;;;;;5066161;28;20032;-58
2023/11/01 10:03:51;;;;;;;11.65;1.40;;;13.60;99.90;;;;;;5063647;28;20502;-62
2023/11/01 10:06:17;;;;;;;14.95;2.45;;;13.70;99.90;;;;;;5064447;28;20050;-59
2023/11/01 10:08:43;;;;;;;11.52;1.42;;;13.70;99.90;;;;;;5068404;28;20016;-61
2023/11/01 10:11:09;;;;;;;8.55;1.50;;;13.70;99.90;;;;;;5066197;28;20025;-56
2023/11/01 10:13:34;;;;;;;6.07;1.27;;;13.70;99.90;;;;;;5071345;28;20115;-60
2023/11/01 10:16:00;;;;;;;13.32;1.90;;;13.70;99.90;;;;;;5060610;28;20564;-61
2023/11/01 10:18:25;;;;;;;8.88;1.70;;;13.80;99.90;;;;;;5064741;28;20127;-59
2023/11/01 10:20:51;;;;;;;12.90;1.60;;;13.80;99.90;;;;;;5057221;28;20025;-59
2023/11/01 10:23:19;;;;;;;5.03;1.05;;;13.80;99.90;;;;;;5063343;28;20029;-61
2023/11/01 10:25:45;;;;;;;7.40;1.33;;;13.80;99.90;;;;;;5058390;28;20021;-59
2023/11/01 10:28:13;;;;;;;6.97;1.60;;;13.90;99.90;;;;;;5064300;28;20561;-58
2023/11/01 10:30:43;;;;;;;18.40;1.75;;;13.90;99.90;;;;;;5060737;28;20042;-61
2023/11/01 10:33:10;;;;;;;13.95;2.17;;;13.90;99.90;;;;;;5060568;28;20029;-60
2023/11/01 10:35:35;;;;;;;16.08;1.63;;;13.90;99.90;;;;;;5062912;28;20041;-60
2023/11/01 10:38:02;;;;;;;12.52;1.88;;;13.90;99.90;;;;;;5064861;28;20068;-62
2023/11/01 10:40:29;;;;;;;5.53;1.77;;;13.90;99.90;;;;;;5064513;28;20021;-60
2023/11/01 10:43:00;;;;;;;7.65;1.65;;;13.80;99.90;;;;;;5065517;28;20418;-56
2023/11/01 10:45:26;;;;;;;6.47;1.35;;;13.90;99.90;;;;;;5065202;28;20549;-61
2023/11/01 10:47:52;;;;;;;10.88;1.60;;;13.90;99.90;;;;;;5070704;28;20116;-62
2023/11/01 10:50:19;;;;;;;10.95;1.45;;;13.90;99.90;;;;;;5060038;28;20033;-62
2023/11/01 10:52:46;;;;;;;18.98;2.22;;;14.00;99.90;;;;;;5060195;28;20401;-59
2023/11/01 10:55:12;;;;;;;14.55;1.63;;;14.00;99.90;;;;;;5056940;28;20047;-56
2023/11/01 10:57:40;;;;;;;8.45;1.20;;;14.10;99.90;;;;;;5060435;28;20043;-58
2023/11/01 11:00:30;;;;;;;12.20;1.48;;;14.10;99.90;;;;;;5063920;28;20021;-59
2023/11/01 11:03:11;;;;;;;16.02;1.95;;;14.20;99.90;;;;;;5056032;28;20024;-61
2023/11/01 11:05:41;;;;;;;11.48;3.72;;;14.30;99.90;;;;;;5063888;28;20036;-60
2023/11/01 11:08:10;;;;;;;13.05;2.05;;;14.40;99.90;;;;;;5053448;28;20108;-61
2023/11/01 11:10:39;;;;;;;14.27;1.95;;;14.40;99.90;;;;;;5061486;28;20095;-61
2023/11/01 11:13:12;;;;;;;10.70;1.70;;;14.50;99.90;;;;;;5057732;28;20128;-63
2023/11/01 11:18:29;;;;;;;9.18;2.17;;;14.40;99.90;;;;;;5053841;28;20028;-63
2023/11/01 11:20:58;;;;;;;12.90;1.57;;;14.40;99.90;;;;;;5061772;28;20028;-58
2023/11/01 11:23:34;;;;;;;9.52;1.95;;;14.40;99.90;;;;;;5054599;28;21147;-59
2023/11/01 11:26:01;;;;;;;7.10;2.33;;;14.40;99.90;;;;;;5053395;28;20074;-60
2023/11/01 11:28:38;;;;;;;7.65;1.52;;;14.40;99.90;;;;;;5055883;28;20033;-60
2023/11/01 11:31:24;;;;;;;8.90;1.70;;;14.40;99.90;;;;;;5051930;28;20052;-58
2023/11/01 11:33:52;;;;;;;16.45;2.72;;;14.40;99.90;;;;;;5060730;28;20029;-62
2023/11/01 11:36:19;;;;;;;17.60;2.15;;;14.40;99.90;;;;;;5062913;28;20029;-61
2023/11/01 11:39:01;;;;;;;13.15;2.40;;;14.50;99.90;;;;;;5059589;28;20090;-60
2023/11/01 11:41:28;;;;;;;7.60;1.75;;;14.50;99.90;;;;;;5057635;28;20028;-61
2023/11/01 11:44:12;;;;;;;13.32;2.00;;;14.50;99.90;;;;;;5066750;28;20028;-59
2023/11/01 11:46:48;;;;;;;17.40;2.03;;;14.50;99.90;;;;;;5056410;28;20029;-60
2023/11/01 11:49:24;;;;;;;13.05;1.77;;;14.40;99.90;;;;;;5060331;28;20502;-58
2023/11/01 11:52:09;;;;;;;9.48;1.75;;;14.50;99.90;;;;;;5063409;28;20032;-58
2023/11/01 11:54:34;;;;;;;;;;;14.50;99.90;;;;;;5059660;28;20032;-61
2023/11/01 11:57:05;;;;;;;15.13;2.03;;;14.50;99.90;;;;;;5061119;28;20011;-61
2023/11/01 11:59:32;;;;;;;11.00;1.83;;;14.50;99.90;;;;;;5062025;28;20056;-59
2023/11/01 12:02:12;;;;;;;16.10;1.80;;;14.50;99.90;;;;;;5055864;28;20029;-62
2023/11/01 12:04:42;;;;;;;7.38;1.40;;;14.50;99.90;;;;;;5055477;28;20136;-59
2023/11/01 12:07:15;;;;;;;17.92;2.35;;;14.50;99.90;;;;;;5062853;28;20033;-61
2023/11/01 12:09:56;;;;;;;7.22;1.42;;;14.50;99.90;;;;;;5064731;28;20151;-59
2023/11/01 12:12:23;;;;;;;15.52;2.10;;;14.50;99.90;;;;;;5066449;28;20417;-61
2023/11/01 12:14:59;;;;;;;7.95;1.80;;;14.50;99.90;;;;;;5057505;28;20059;-61
2023/11/01 12:17:25;;;;;;;12.23;2.15;;;14.60;99.90;;;;;;5059462;28;20098;-60
2023/11/01 12:19:51;;;;;;;13.32;1.70;;;14.60;99.90;;;;;;5062117;28;20410;-60
2023/11/01 12:22:17;;;;;;;12.55;2.63;;;14.60;99.90;;;;;;5054468;28;20112;-62
2023/11/01 12:24:46;;;;;;;4.72;1.35;;;14.60;99.90;;;;;;5072200;28;20020;-61
2023/11/01 12:27:13;;;;;;;12.10;2.03;;;14.60;99.90;;;;;;5060111;28;20078;-61
2023/11/01 12:29:41;;;;;;;15.77;2.30;;;14.60;99.90;;;;;;5058250;28;20581;-61
2023/11/01 12:32:10;;;;;;;9.95;1.65;;;14.60;99.90;;;;;;5058011;28;20087;-62
2023/11/01 12:34:59;;;;;;;11.52;2.38;;;14.50;99.90;;;;;;5058055;28;20507;-61
2023/11/01 12:37:28;;;;;;;12.43;1.98;;;14.50;99.90;;;;;;5051279;28;20037;-60
2023/11/01 12:40:04;;;;;;;11.45;1.98;;;14.40;99.90;;;;;;5060524;28;20032;-60
2023/11/01 12:42:30;;;;;;;15.25;2.10;;;14.50;99.90;;;;;;5058318;28;20394;-61
2023/11/01 12:44:56;;;;;;;16.17;1.73;;;14.40;99.90;;;;;;5064184;28;20024;-59